Time;durP1;ratioP1;P1;durP2;ratioP2;P2;SDS_P1;SDS_P2;PMS_P1;PMS_P2;Temp;Humidity;BMP_temperature;BMP_pressure;BME280_temperature;BME280_humidity;BME280_pressure;Samples;Min_cycle;Max_cycle;Signal;HPM_P1;HPM_P2
2023/09/30 00:01:52;;;;;;;7.57;4.27;;;;;;;;;;5007525;28;20882;-52
2023/09/30 00:04:18;;;;;;;5.37;3.70;;;;;;;;;;5008799;28;20567;-52
2023/09/30 00:06:44;;;;;;;6.63;3.83;;;;;;;;;;5007298;28;20194;-51
2023/09/30 00:09:11;;;;;;;6.53;4.03;;;;;;;;;;5009054;28;20703;-52
2023/09/30 00:11:37;;;;;;;7.50;4.00;;;;;;;;;;5007956;28;20273;-51
2023/09/30 00:14:04;;;;;;;4.37;3.50;;;;;;;;;;5008710;28;20301;-51
2023/09/30 00:16:30;;;;;;;4.50;3.50;;;;;;;;;;5003671;28;20210;-52
2023/09/30 00:19:02;;;;;;;6.37;4.13;;;;;;;;;;5009431;28;20670;-52
2023/09/30 00:21:28;;;;;;;4.63;3.47;;;;;;;;;;5007779;28;20266;-51
2023/09/30 00:23:54;;;;;;;6.50;3.50;;;;;;;;;;5008470;28;20178;-52
2023/09/30 00:26:22;;;;;;;6.67;3.47;;;;;;;;;;5008063;28;20265;-51
2023/09/30 00:28:48;;;;;;;4.40;4.00;;;;;;;;;;5008787;28;20240;-51
2023/09/30 00:31:14;;;;;;;4.67;3.50;;;;;;;;;;5007247;28;20657;-53
2023/09/30 00:33:40;;;;;;;5.67;4.03;;;;;;;;;;4991443;28;20221;-53
2023/09/30 00:36:10;;;;;;;5.10;3.97;;;;;;;;;;5008467;28;20186;-53
2023/09/30 00:38:36;;;;;;;4.67;3.77;;;;;;;;;;5008925;28;20684;-54
2023/09/30 00:41:02;;;;;;;5.40;3.90;;;;;;;;;;5008115;28;20201;-54
2023/09/30 00:43:29;;;;;;;4.47;3.67;;;;;;;;;;5007323;28;20178;-53
2023/09/30 00:46:05;;;;;;;5.77;4.13;;;;;;;;;;5007553;28;20182;-53
2023/09/30 00:48:31;;;;;;;4.47;3.40;;;;;;;;;;5005970;28;20875;-55
2023/09/30 00:50:58;;;;;;;5.13;3.47;;;;;;;;;;5006447;28;20203;-53
2023/09/30 00:53:24;;;;;;;5.07;3.80;;;;;;;;;;5005351;28;20179;-53
2023/09/30 00:55:51;;;;;;;4.30;3.57;;;;;;;;;;5008254;28;20179;-54
2023/09/30 00:58:17;;;;;;;4.00;3.37;;;;;;;;;;5006648;28;20248;-54
2023/09/30 01:00:44;;;;;;;5.93;4.67;;;;;;;;;;5008924;28;20196;-53
2023/09/30 01:03:10;;;;;;;5.80;3.57;;;;;;;;;;5010208;28;20190;-53
2023/09/30 01:05:36;;;;;;;5.00;3.77;;;;;;;;;;5010692;28;20187;-53
2023/09/30 01:08:03;;;;;;;4.80;3.80;;;;;;;;;;5009911;28;20227;-53
2023/09/30 01:10:29;;;;;;;4.33;3.67;;;;;;;;;;5010921;28;20217;-54
2023/09/30 01:12:55;;;;;;;4.53;3.77;;;;;;;;;;5010374;28;20190;-54
2023/09/30 01:15:21;;;;;;;6.30;3.70;;;;;;;;;;5009717;28;20229;-53
2023/09/30 01:17:47;;;;;;;5.60;3.53;;;;;;;;;;5008548;28;20179;-53
2023/09/30 01:20:16;;;;;;;7.40;4.27;;;;;;;;;;5010956;28;20178;-54
2023/09/30 01:22:45;;;;;;;4.70;3.47;;;;;;;;;;5009769;28;20544;-53
2023/09/30 01:25:11;;;;;;;5.93;4.07;;;;;;;;;;5010513;28;20218;-54
2023/09/30 01:27:37;;;;;;;5.10;4.00;;;;;;;;;;5010915;28;20190;-53
2023/09/30 01:30:03;;;;;;;6.60;4.63;;;;;;;;;;5009813;28;20566;-54
2023/09/30 01:32:30;;;;;;;7.93;3.90;;;;;;;;;;5010739;28;20178;-54
2023/09/30 01:34:56;;;;;;;8.17;3.57;;;;;;;;;;4994008;28;20189;-53
2023/09/30 01:37:22;;;;;;;6.00;3.90;;;;;;;;;;5010682;28;20179;-54
2023/09/30 01:39:50;;;;;;;6.13;3.70;;;;;;;;;;5010768;28;20187;-54
2023/09/30 01:42:16;;;;;;;7.13;3.63;;;;;;;;;;5010419;28;20186;-54
2023/09/30 01:44:42;;;;;;;5.47;3.90;;;;;;;;;;5009982;28;20190;-53
2023/09/30 01:47:08;;;;;;;5.07;3.97;;;;;;;;;;5009767;28;20189;-53
2023/09/30 01:49:35;;;;;;;6.20;4.30;;;;;;;;;;5005256;28;20207;-53
2023/09/30 01:52:01;;;;;;;5.63;3.73;;;;;;;;;;5009759;28;20202;-53
2023/09/30 01:54:27;;;;;;;5.00;4.10;;;;;;;;;;5011514;28;20185;-53
2023/09/30 01:56:53;;;;;;;9.57;3.90;;;;;;;;;;5009907;28;20559;-53
2023/09/30 01:59:19;;;;;;;4.63;3.90;;;;;;;;;;5008202;28;20183;-53
2023/09/30 02:01:45;;;;;;;6.07;4.23;;;;;;;;;;4987335;28;20553;-53
2023/09/30 02:04:15;;;;;;;5.43;4.10;;;;;;;;;;4999847;28;20190;-53
2023/09/30 02:06:44;;;;;;;4.23;3.83;;;;;;;;;;5006069;28;20255;-53
2023/09/30 02:09:10;;;;;;;5.60;4.00;;;;;;;;;;5007799;28;20245;-53
2023/09/30 02:11:37;;;;;;;4.43;3.47;;;;;;;;;;5006829;28;20522;-54
2023/09/30 02:14:05;;;;;;;5.43;3.77;;;;;;;;;;4988900;28;20259;-54
2023/09/30 02:16:32;;;;;;;5.83;3.37;;;;;;;;;;4989569;28;20189;-53
2023/09/30 02:18:58;;;;;;;5.63;3.57;;;;;;;;;;5000366;28;20214;-54
2023/09/30 02:21:24;;;;;;;6.00;3.83;;;;;;;;;;5001104;28;20293;-54
2023/09/30 02:23:54;;;;;;;7.80;4.30;;;;;;;;;;5004538;28;20240;-54
2023/09/30 02:26:21;;;;;;;4.80;3.80;;;;;;;;;;5007411;28;20582;-54
2023/09/30 02:28:47;;;;;;;6.13;3.93;;;;;;;;;;5008742;28;20213;-54
2023/09/30 02:31:13;;;;;;;3.73;3.33;;;;;;;;;;5009108;28;20674;-54
2023/09/30 02:33:39;;;;;;;4.47;3.50;;;;;;;;;;5008231;28;20221;-54
2023/09/30 02:36:09;;;;;;;4.87;4.10;;;;;;;;;;5006826;28;20650;-55
2023/09/30 02:38:38;;;;;;;4.83;3.87;;;;;;;;;;5008500;28;20645;-54
2023/09/30 02:41:05;;;;;;;4.23;3.83;;;;;;;;;;5003464;28;20278;-54
2023/09/30 02:43:31;;;;;;;4.33;3.93;;;;;;;;;;5004419;28;20654;-54
2023/09/30 02:45:57;;;;;;;5.67;4.40;;;;;;;;;;5007273;28;20180;-54
2023/09/30 02:48:23;;;;;;;4.37;3.80;;;;;;;;;;5007825;28;20186;-54
2023/09/30 02:50:49;;;;;;;4.07;3.63;;;;;;;;;;5008325;28;20219;-54
2023/09/30 02:53:15;;;;;;;5.67;4.50;;;;;;;;;;5006746;28;20257;-54
2023/09/30 02:55:42;;;;;;;5.03;3.97;;;;;;;;;;5004864;28;20198;-54
2023/09/30 02:58:08;;;;;;;6.30;4.10;;;;;;;;;;4999834;28;20193;-54
2023/09/30 03:00:38;;;;;;;5.43;3.77;;;;;;;;;;5006658;28;20229;-53
2023/09/30 03:03:04;;;;;;;4.07;3.67;;;;;;;;;;5005592;28;20225;-54
2023/09/30 03:05:33;;;;;;;5.50;3.53;;;;;;;;;;5005195;28;20197;-54
2023/09/30 03:08:00;;;;;;;5.67;3.90;;;;;;;;;;5006564;28;20179;-55
2023/09/30 03:10:26;;;;;;;5.10;4.03;;;;;;;;;;5008126;28;20203;-54
2023/09/30 03:12:56;;;;;;;4.67;4.13;;;;;;;;;;5006455;28;20638;-54
2023/09/30 03:15:22;;;;;;;4.93;3.60;;;;;;;;;;5000794;28;20528;-54
2023/09/30 03:17:48;;;;;;;4.70;3.67;;;;;;;;;;5008435;28;20182;-54
2023/09/30 03:20:19;;;;;;;4.70;3.77;;;;;;;;;;5002286;28;20206;-53
2023/09/30 03:22:48;;;;;;;4.37;3.47;;;;;;;;;;5005058;28;20210;-54
2023/09/30 03:25:17;;;;;;;4.20;3.40;;;;;;;;;;5008456;28;20264;-54
2023/09/30 03:27:43;;;;;;;5.43;3.73;;;;;;;;;;5005917;28;20290;-53
2023/09/30 03:30:12;;;;;;;5.77;3.93;;;;;;;;;;5007681;28;20256;-53
2023/09/30 03:32:39;;;;;;;5.40;3.77;;;;;;;;;;5008016;28;20297;-53
2023/09/30 03:35:10;;;;;;;6.27;3.93;;;;;;;;;;5007611;28;20183;-54
2023/09/30 03:37:41;;;;;;;6.03;3.70;;;;;;;;;;5007096;28;20256;-53
2023/09/30 03:40:44;;;;;;;6.43;4.37;;;;;;;;;;5008099;28;20195;-54
2023/09/30 03:43:00;;;;;;;5.13;4.10;;;;;;;;;;5003893;28;20186;-52
2023/09/30 03:45:26;;;;;;;5.77;3.53;;;;;;;;;;5006736;28;20209;-51
2023/09/30 03:47:52;;;;;;;8.27;4.87;;;;;;;;;;5009330;28;20657;-53
2023/09/30 03:50:18;;;;;;;5.13;3.97;;;;;;;;;;5007277;28;20603;-52
2023/09/30 03:52:45;;;;;;;5.03;3.70;;;;;;;;;;5007263;28;20241;-53
2023/09/30 03:55:12;;;;;;;5.70;3.80;;;;;;;;;;5006596;28;20201;-53
2023/09/30 03:57:38;;;;;;;4.63;3.80;;;;;;;;;;5008063;28;20193;-53
2023/09/30 04:00:11;;;;;;;5.63;4.17;;;;;;;;;;5007248;28;20186;-53
2023/09/30 04:02:37;;;;;;;4.47;3.87;;;;;;;;;;5005288;28;20187;-54
2023/09/30 04:05:05;;;;;;;4.90;4.07;;;;;;;;;;5007183;28;20190;-55
2023/09/30 04:07:31;;;;;;;5.83;3.90;;;;;;;;;;5006287;28;20196;-53
2023/09/30 04:09:57;;;;;;;7.43;3.80;;;;;;;;;;5008318;28;20214;-53
2023/09/30 04:12:23;;;;;;;7.73;4.27;;;;;;;;;;5007781;28;20174;-53
2023/09/30 04:14:50;;;;;;;5.10;3.97;;;;;;;;;;5005150;28;20240;-53
2023/09/30 04:17:16;;;;;;;7.57;4.40;;;;;;;;;;5007526;28;20177;-53
2023/09/30 04:19:42;;;;;;;5.40;3.60;;;;;;;;;;5007941;28;20626;-53
2023/09/30 04:22:08;;;;;;;4.60;3.70;;;;;;;;;;5006069;28;20206;-53
2023/09/30 04:24:34;;;;;;;3.60;3.27;;;;;;;;;;5001751;28;20689;-53
2023/09/30 04:27:04;;;;;;;5.87;4.50;;;;;;;;;;5003168;28;20194;-53
2023/09/30 04:29:30;;;;;;;5.90;4.90;;;;;;;;;;5008999;28;20237;-53
2023/09/30 04:31:56;;;;;;;4.30;3.70;;;;;;;;;;5007736;28;20175;-54
2023/09/30 04:34:23;;;;;;;7.23;4.20;;;;;;;;;;5009481;28;21324;-54
2023/09/30 04:36:49;;;;;;;6.07;4.07;;;;;;;;;;5009441;28;20328;-54
2023/09/30 04:39:15;;;;;;;5.33;3.47;;;;;;;;;;5010631;28;20224;-53
2023/09/30 04:41:42;;;;;;;4.87;3.87;;;;;;;;;;4998574;28;20187;-54
2023/09/30 04:44:11;;;;;;;6.00;3.87;;;;;;;;;;5007575;28;20183;-54
2023/09/30 04:46:40;;;;;;;5.70;3.90;;;;;;;;;;5005946;28;20205;-53
2023/09/30 04:49:09;;;;;;;3.93;3.50;;;;;;;;;;5007665;28;20186;-54
2023/09/30 04:51:36;;;;;;;6.13;4.23;;;;;;;;;;5008090;28;20617;-53
2023/09/30 04:54:03;;;;;;;4.87;3.67;;;;;;;;;;5009389;28;20692;-54
2023/09/30 04:56:29;;;;;;;4.90;4.20;;;;;;;;;;5010330;28;20178;-54
2023/09/30 04:58:55;;;;;;;5.30;3.77;;;;;;;;;;5009557;28;20202;-53
2023/09/30 05:01:21;;;;;;;4.43;3.47;;;;;;;;;;4992491;28;20292;-53
2023/09/30 05:03:50;;;;;;;8.20;4.40;;;;;;;;;;5012362;28;20186;-51
2023/09/30 05:06:16;;;;;;;4.13;3.70;;;;;;;;;;5009448;28;20182;-50
2023/09/30 05:08:43;;;;;;;5.57;4.27;;;;;;;;;;5010514;28;20186;-51
2023/09/30 05:11:09;;;;;;;5.57;5.07;;;;;;;;;;5010022;28;20293;-51
2023/09/30 05:13:36;;;;;;;6.10;3.93;;;;;;;;;;5007793;28;20202;-50
2023/09/30 05:16:03;;;;;;;6.93;3.87;;;;;;;;;;5010117;28;20671;-51
2023/09/30 05:18:29;;;;;;;3.33;3.03;;;;;;;;;;5011034;28;20635;-50
2023/09/30 05:20:56;;;;;;;5.60;4.20;;;;;;;;;;5010500;28;20209;-51
2023/09/30 05:23:22;;;;;;;4.43;3.87;;;;;;;;;;5007771;28;20547;-50
2023/09/30 05:25:50;;;;;;;7.10;4.97;;;;;;;;;;5003979;28;20179;-51
2023/09/30 05:28:17;;;;;;;5.77;4.23;;;;;;;;;;5009524;28;20180;-50
2023/09/30 05:30:43;;;;;;;4.90;3.83;;;;;;;;;;5007221;28;20208;-51
2023/09/30 05:33:14;;;;;;;4.97;4.00;;;;;;;;;;5001736;28;20258;-51
2023/09/30 05:35:41;;;;;;;5.30;3.90;;;;;;;;;;5008402;28;20225;-50
2023/09/30 05:38:07;;;;;;;4.37;3.90;;;;;;;;;;5009060;28;20182;-50
2023/09/30 05:40:33;;;;;;;6.87;4.03;;;;;;;;;;5010573;28;20200;-52
2023/09/30 05:43:00;;;;;;;6.40;3.90;;;;;;;;;;5009902;28;20180;-52
2023/09/30 05:45:27;;;;;;;5.03;4.03;;;;;;;;;;5002823;28;20185;-51
2023/09/30 05:47:54;;;;;;;5.63;4.07;;;;;;;;;;5009836;28;20192;-51
2023/09/30 05:50:27;;;;;;;4.93;4.00;;;;;;;;;;4982259;28;20683;-50
2023/09/30 05:52:54;;;;;;;4.97;3.70;;;;;;;;;;5003178;28;20187;-50
2023/09/30 05:55:21;;;;;;;5.60;3.50;;;;;;;;;;5009270;28;20607;-52
2023/09/30 05:57:52;;;;;;;3.87;3.23;;;;;;;;;;5009539;28;20693;-50
2023/09/30 06:00:22;;;;;;;6.80;4.63;;;;;;;;;;5009912;28;20184;-51
2023/09/30 06:02:51;;;;;;;6.03;4.40;;;;;;;;;;5008263;28;20218;-50
2023/09/30 06:05:18;;;;;;;4.70;3.90;;;;;;;;;;5007856;28;20202;-51
2023/09/30 06:07:45;;;;;;;6.20;4.00;;;;;;;;;;5009328;28;20277;-51
2023/09/30 06:10:11;;;;;;;5.00;3.90;;;;;;;;;;5009544;28;20218;-51
2023/09/30 06:12:37;;;;;;;6.03;4.17;;;;;;;;;;5007169;28;20247;-52
2023/09/30 06:15:03;;;;;;;5.23;3.80;;;;;;;;;;5006187;28;20557;-53
2023/09/30 06:17:29;;;;;;;6.53;4.20;;;;;;;;;;5008246;28;20191;-53
2023/09/30 06:19:56;;;;;;;6.73;4.07;;;;;;;;;;5009075;28;20188;-53
2023/09/30 06:22:21;;;;;;;5.97;3.93;;;;;;;;;;5009047;28;20188;-53
2023/09/30 06:24:48;;;;;;;5.63;3.97;;;;;;;;;;4986893;28;20181;-53
2023/09/30 06:27:14;;;;;;;7.07;4.13;;;;;;;;;;5005832;28;20191;-53
2023/09/30 06:29:42;;;;;;;5.90;3.83;;;;;;;;;;5007311;28;20287;-53
2023/09/30 06:32:08;;;;;;;5.43;3.80;;;;;;;;;;5006730;28;20535;-52
2023/09/30 06:34:35;;;;;;;5.53;4.07;;;;;;;;;;5008977;28;20210;-53
2023/09/30 06:37:02;;;;;;;6.20;4.00;;;;;;;;;;5007966;28;20209;-53
2023/09/30 06:39:29;;;;;;;4.73;4.10;;;;;;;;;;5008528;28;20190;-53
2023/09/30 06:41:55;;;;;;;6.60;4.30;;;;;;;;;;5007739;28;20202;-53
2023/09/30 06:44:24;;;;;;;8.60;3.87;;;;;;;;;;5008657;28;20245;-53
2023/09/30 06:46:50;;;;;;;4.10;3.70;;;;;;;;;;5006609;28;20186;-53
2023/09/30 06:49:16;;;;;;;7.37;4.63;;;;;;;;;;5008768;28;20909;-53
2023/09/30 06:51:43;;;;;;;5.60;4.07;;;;;;;;;;5007354;28;20203;-53
2023/09/30 06:54:09;;;;;;;6.07;4.00;;;;;;;;;;5009159;28;20178;-53
2023/09/30 06:56:36;;;;;;;7.60;5.13;;;;;;;;;;5005176;28;20183;-53
2023/09/30 06:59:02;;;;;;;6.50;4.20;;;;;;;;;;5007186;28;20192;-53
2023/09/30 07:01:28;;;;;;;5.57;4.33;;;;;;;;;;5004145;28;20185;-53
2023/09/30 07:03:55;;;;;;;5.60;4.27;;;;;;;;;;5007701;28;20189;-53
2023/09/30 07:06:27;;;;;;;10.57;4.90;;;;;;;;;;4988826;28;20860;-53
2023/09/30 07:08:54;;;;;;;6.90;4.97;;;;;;;;;;5001611;28;20657;-52
2023/09/30 07:11:29;;;;;;;6.57;4.47;;;;;;;;;;5005029;28;20478;-54
2023/09/30 07:13:57;;;;;;;7.40;5.83;;;;;;;;;;4987724;28;20263;-53
2023/09/30 07:16:23;;;;;;;5.70;4.63;;;;;;;;;;5007796;28;20183;-53
2023/09/30 07:18:50;;;;;;;6.23;4.53;;;;;;;;;;5006382;28;20215;-53
2023/09/30 07:21:16;;;;;;;8.70;5.37;;;;;;;;;;5007727;28;20228;-53
2023/09/30 07:23:42;;;;;;;10.73;6.97;;;;;;;;;;4991903;28;20186;-54
2023/09/30 07:26:08;;;;;;;10.43;6.83;;;;;;;;;;5007171;28;20661;-54
2023/09/30 07:28:35;;;;;;;9.17;6.90;;;;;;;;;;5004914;28;20198;-53
2023/09/30 07:31:01;;;;;;;9.97;6.80;;;;;;;;;;5007524;28;20210;-53
2023/09/30 07:33:27;;;;;;;11.63;7.90;;;;;;;;;;5004178;28;20241;-54
2023/09/30 07:35:55;;;;;;;9.40;6.97;;;;;;;;;;4984612;28;20186;-53
2023/09/30 07:38:22;;;;;;;12.57;7.73;;;;;;;;;;4984642;28;20202;-53
2023/09/30 07:40:51;;;;;;;12.07;7.63;;;;;;;;;;5005083;28;20638;-53
2023/09/30 07:43:20;;;;;;;13.77;8.30;;;;;;;;;;5007907;28;20584;-53
2023/09/30 07:45:46;;;;;;;9.80;7.40;;;;;;;;;;5006868;28;20240;-53
2023/09/30 07:48:13;;;;;;;15.43;8.97;;;;;;;;;;5007846;28;20190;-54
2023/09/30 07:50:40;;;;;;;11.77;8.63;;;;;;;;;;5007052;28;20635;-53
2023/09/30 07:53:06;;;;;;;12.93;8.93;;;;;;;;;;5008216;28;20183;-55
2023/09/30 07:55:32;;;;;;;14.80;9.20;;;;;;;;;;5007799;28;20192;-56
2023/09/30 07:58:00;;;;;;;10.80;8.00;;;;;;;;;;5006570;28;20182;-55
2023/09/30 08:00:26;;;;;;;16.77;9.83;;;;;;;;;;5001248;28;20198;-54
2023/09/30 08:02:52;;;;;;;15.02;9.65;;;;;;;;;;5007137;28;20917;-54
2023/09/30 08:05:18;;;;;;;12.93;8.73;;;;;;;;;;5007472;28;20236;-53
2023/09/30 08:07:45;;;;;;;14.33;10.03;;;;;;;;;;5005304;28;20211;-53
2023/09/30 08:10:13;;;;;;;13.53;9.77;;;;;;;;;;5002830;28;20309;-54
2023/09/30 08:12:40;;;;;;;12.20;9.33;;;;;;;;;;4988264;28;20221;-53
2023/09/30 08:15:07;;;;;;;13.03;8.90;;;;;;;;;;5009561;28;20262;-53
2023/09/30 08:17:33;;;;;;;14.57;9.13;;;;;;;;;;5011215;28;20193;-53
2023/09/30 08:20:00;;;;;;;13.93;8.80;;;;;;;;;;5007404;28;20190;-53
2023/09/30 08:22:27;;;;;;;12.77;9.07;;;;;;;;;;5009994;28;20674;-53
2023/09/30 08:24:54;;;;;;;10.40;8.50;;;;;;;;;;5012600;28;20197;-54
2023/09/30 08:27:20;;;;;;;10.43;8.97;;;;;;;;;;5009797;28;20186;-53
2023/09/30 08:29:46;;;;;;;11.23;9.10;;;;;;;;;;5008535;28;20661;-54
2023/09/30 08:32:12;;;;;;;14.83;10.07;;;;;;;;;;4992844;28;20547;-54
2023/09/30 08:34:39;;;;;;;12.03;9.20;;;;;;;;;;5011639;28;20650;-54
2023/09/30 08:37:05;;;;;;;12.50;9.97;;;;;;;;;;5010854;28;20186;-54
2023/09/30 08:39:31;;;;;;;22.40;10.93;;;;;;;;;;5011476;28;20228;-54
2023/09/30 08:41:58;;;;;;;24.20;10.20;;;;;;;;;;5010623;28;20520;-54
2023/09/30 08:44:24;;;;;;;21.87;10.80;;;;;;;;;;5010105;28;20183;-54
2023/09/30 08:46:52;;;;;;;20.67;11.30;;;;;;;;;;5010392;28;20281;-53
2023/09/30 08:49:19;;;;;;;18.63;10.23;;;;;;;;;;5011395;28;20174;-54
2023/09/30 08:51:45;;;;;;;13.43;9.77;;;;;;;;;;5008240;28;20504;-54
2023/09/30 08:54:11;;;;;;;14.67;10.40;;;;;;;;;;5010099;28;20186;-53
2023/09/30 08:56:39;;;;;;;13.13;10.43;;;;;;;;;;5004091;28;20182;-54
2023/09/30 08:59:05;;;;;;;13.77;9.90;;;;;;;;;;5011540;28;20198;-54
2023/09/30 09:01:31;;;;;;;14.67;10.00;;;;;;;;;;5009353;28;20195;-54
2023/09/30 09:03:58;;;;;;;12.70;9.30;;;;;;;;;;5011191;28;20564;-54
2023/09/30 09:06:25;;;;;;;15.57;10.87;;;;;;;;;;5009120;28;20444;-54
2023/09/30 09:08:51;;;;;;;13.50;9.70;;;;;;;;;;5010539;28;20543;-54
2023/09/30 09:11:17;;;;;;;11.73;10.03;;;;;;;;;;5009970;28;20570;-54
2023/09/30 09:13:49;;;;;;;14.73;10.00;;;;;;;;;;5010859;28;20198;-53
2023/09/30 09:16:17;;;;;;;14.30;9.93;;;;;;;;;;5010484;28;20219;-54
2023/09/30 09:18:44;;;;;;;14.17;9.87;;;;;;;;;;5009291;28;20198;-53
2023/09/30 09:21:10;;;;;;;15.77;9.70;;;;;;;;;;5009279;28;20183;-53
2023/09/30 09:23:39;;;;;;;10.80;8.73;;;;;;;;;;5010761;28;20178;-54
2023/09/30 09:26:07;;;;;;;15.80;9.73;;;;;;;;;;5005769;28;20210;-54
2023/09/30 09:28:38;;;;;;;11.57;9.07;;;;;;;;;;5010671;28;20191;-54
2023/09/30 09:31:20;;;;;;;14.07;9.00;;;;;;;;;;5001963;28;20298;-54
2023/09/30 09:33:47;;;;;;;17.07;9.17;;;;;;;;;;5006104;28;20201;-53
2023/09/30 09:36:13;;;;;;;13.80;7.73;;;;;;;;;;5006791;28;20197;-54
2023/09/30 09:38:49;;;;;;;12.17;7.93;;;;;;;;;;5009026;28;20250;-53
2023/09/30 09:41:16;;;;;;;10.47;7.70;;;;;;;;;;5009303;28;20224;-54
2023/09/30 09:43:43;;;;;;;11.63;7.67;;;;;;;;;;5008838;28;20205;-54
2023/09/30 09:46:10;;;;;;;9.60;7.47;;;;;;;;;;4989705;28;20226;-54
2023/09/30 09:48:36;;;;;;;14.63;7.03;;;;;;;;;;5010200;28;20186;-54
2023/09/30 09:51:02;;;;;;;10.03;6.97;;;;;;;;;;5009117;28;20302;-54
2023/09/30 09:53:34;;;;;;;10.27;6.83;;;;;;;;;;5007758;28;20186;-54
2023/09/30 09:56:01;;;;;;;9.70;6.60;;;;;;;;;;5007501;28;20182;-53
2023/09/30 09:58:31;;;;;;;8.13;7.33;;;;;;;;;;5008451;28;20179;-54
2023/09/30 10:00:58;;;;;;;9.67;6.57;;;;;;;;;;5007964;28;20186;-54
2023/09/30 10:03:24;;;;;;;9.57;7.03;;;;;;;;;;5009197;28;20182;-51
2023/09/30 10:05:51;;;;;;;8.23;7.07;;;;;;;;;;5005067;28;20274;-53
2023/09/30 10:08:18;;;;;;;10.37;6.77;;;;;;;;;;4990710;28;20658;-54
2023/09/30 10:10:45;;;;;;;10.90;6.73;;;;;;;;;;5007082;28;20210;-53
2023/09/30 10:13:31;;;;;;;9.07;6.80;;;;;;;;;;5006939;28;20179;-54
2023/09/30 10:15:57;;;;;;;10.30;7.10;;;;;;;;;;5008355;28;20186;-53
2023/09/30 10:18:23;;;;;;;12.17;6.67;;;;;;;;;;4992375;28;20696;-54
2023/09/30 10:20:51;;;;;;;8.70;6.33;;;;;;;;;;5009177;28;20232;-54
2023/09/30 10:23:24;;;;;;;8.33;5.43;;;;;;;;;;5009450;28;20183;-53
2023/09/30 10:25:54;;;;;;;7.33;4.90;;;;;;;;;;5008722;28;20201;-54
2023/09/30 10:28:39;;;;;;;8.83;5.30;;;;;;;;;;5008637;28;20209;-54
2023/09/30 10:31:24;;;;;;;8.33;5.43;;;;;;;;;;5004141;28;20293;-54
2023/09/30 10:33:59;;;;;;;9.30;5.90;;;;;;;;;;5009609;28;20177;-54
2023/09/30 10:36:37;;;;;;;8.07;5.60;;;;;;;;;;5005433;28;20174;-53
2023/09/30 10:39:03;;;;;;;9.10;5.30;;;;;;;;;;5009297;28;20547;-54
2023/09/30 10:41:38;;;;;;;5.27;4.73;;;;;;;;;;5007874;28;20517;-54
2023/09/30 10:44:25;;;;;;;9.30;4.73;;;;;;;;;;5007951;28;20214;-54
2023/09/30 10:47:21;;;;;;;11.48;5.40;;;;;;;;;;5005294;28;20427;-55
2023/09/30 10:49:47;;;;;;;7.07;5.27;;;;;;;;;;5006716;28;20264;-55
2023/09/30 10:52:22;;;;;;;8.70;5.70;;;;;;;;;;5007993;28;20518;-53
2023/09/30 10:54:49;;;;;;;9.87;4.30;;;;;;;;;;5003833;28;20271;-53
2023/09/30 10:57:27;;;;;;;8.93;4.60;;;;;;;;;;5002389;28;20178;-53
2023/09/30 11:00:14;;;;;;;8.87;4.90;;;;;;;;;;5009830;28;20182;-53
2023/09/30 11:02:50;;;;;;;8.30;4.77;;;;;;;;;;4998076;28;20183;-53
2023/09/30 11:05:16;;;;;;;8.48;4.85;;;;;;;;;;4988519;28;20853;-53
2023/09/30 11:07:42;;;;;;;6.60;4.47;;;;;;;;;;5008262;28;20265;-53
2023/09/30 11:10:08;;;;;;;8.17;4.07;;;;;;;;;;5009221;28;20206;-53
2023/09/30 11:12:34;;;;;;;9.87;4.53;;;;;;;;;;5007910;28;20653;-53
2023/09/30 11:15:02;;;;;;;5.93;4.30;;;;;;;;;;5009313;28;20222;-56
2023/09/30 11:17:28;;;;;;;7.27;4.33;;;;;;;;;;5007390;28;20182;-59
2023/09/30 11:19:55;;;;;;;14.40;5.07;;;;;;;;;;5005653;28;20190;-56
2023/09/30 11:22:21;;;;;;;7.70;4.53;;;;;;;;;;5007479;28;20190;-56
2023/09/30 11:24:47;;;;;;;10.50;4.70;;;;;;;;;;5004396;28;20550;-54
2023/09/30 11:27:14;;;;;;;7.87;4.33;;;;;;;;;;5008093;28;20591;-54
2023/09/30 11:29:49;;;;;;;4.87;4.10;;;;;;;;;;5008616;28;20318;-54
2023/09/30 11:32:28;;;;;;;11.57;4.87;;;;;;;;;;5006582;28;20180;-54
2023/09/30 11:34:55;;;;;;;7.60;3.87;;;;;;;;;;5006680;28;20187;-54
2023/09/30 11:37:24;;;;;;;4.73;3.83;;;;;;;;;;5000744;28;20179;-53
2023/09/30 11:39:50;;;;;;;6.43;3.77;;;;;;;;;;5007138;28;20190;-54
2023/09/30 11:42:20;;;;;;;6.47;3.40;;;;;;;;;;5006484;28;20195;-55
2023/09/30 11:44:50;;;;;;;14.53;3.80;;;;;;;;;;5006237;28;20182;-54
2023/09/30 11:47:16;;;;;;;6.03;3.47;;;;;;;;;;5005316;28;20598;-54
2023/09/30 11:49:54;;;;;;;4.97;3.10;;;;;;;;;;4989173;28;20218;-54
2023/09/30 11:52:26;;;;;;;6.57;3.93;;;;;;;;;;5006640;28;20710;-54
2023/09/30 11:54:53;;;;;;;6.87;4.77;;;;;;;;;;5006092;28;20648;-54
2023/09/30 11:57:19;;;;;;;9.90;5.03;;;;;;;;;;5005126;28;20193;-53
2023/09/30 11:59:46;;;;;;;6.70;5.17;;;;;;;;;;5004844;28;20223;-54
2023/09/30 12:02:14;;;;;;;4.87;4.40;;;;;;;;;;4998644;28;20548;-54
2023/09/30 12:04:41;;;;;;;7.03;3.70;;;;;;;;;;4999665;28;21728;-53
2023/09/30 12:07:08;;;;;;;7.67;3.83;;;;;;;;;;4995122;28;20182;-54
2023/09/30 12:09:36;;;;;;;5.57;3.67;;;;;;;;;;4995971;28;20215;-54
2023/09/30 12:12:03;;;;;;;5.47;3.40;;;;;;;;;;4981680;28;20248;-54
2023/09/30 12:14:32;;;;;;;6.27;4.03;;;;;;;;;;5007178;28;20588;-55
2023/09/30 12:16:59;;;;;;;7.10;3.10;;;;;;;;;;5006199;28;20185;-54
2023/09/30 12:19:26;;;;;;;6.70;3.80;;;;;;;;;;5007798;28;20710;-54
2023/09/30 12:21:52;;;;;;;8.53;3.87;;;;;;;;;;5003932;28;20266;-54
2023/09/30 12:24:23;;;;;;;4.43;2.93;;;;;;;;;;5005542;28;20232;-57
2023/09/30 12:26:51;;;;;;;6.73;3.83;;;;;;;;;;5006343;28;20190;-56
2023/09/30 12:29:21;;;;;;;3.60;3.10;;;;;;;;;;5006464;28;20175;-56
2023/09/30 12:31:48;;;;;;;6.13;4.23;;;;;;;;;;5004482;28;20643;-56
2023/09/30 12:34:14;;;;;;;4.23;2.90;;;;;;;;;;5003146;28;20218;-56
2023/09/30 12:36:41;;;;;;;3.90;2.63;;;;;;;;;;5005434;28;20583;-56
2023/09/30 12:39:10;;;;;;;6.60;3.20;;;;;;;;;;5007347;28;20685;-56
2023/09/30 12:41:40;;;;;;;4.10;3.50;;;;;;;;;;5000213;28;20262;-56
2023/09/30 12:44:08;;;;;;;5.97;3.33;;;;;;;;;;5004870;28;20233;-56
2023/09/30 12:46:36;;;;;;;4.73;2.93;;;;;;;;;;5006668;28;20222;-56
2023/09/30 12:49:03;;;;;;;7.20;3.90;;;;;;;;;;5000922;28;20265;-56
2023/09/30 12:51:29;;;;;;;7.97;3.60;;;;;;;;;;5004646;28;20579;-56
2023/09/30 12:53:55;;;;;;;6.63;3.47;;;;;;;;;;5003351;28;20681;-56
2023/09/30 12:56:21;;;;;;;6.90;3.20;;;;;;;;;;5007161;28;20193;-55
2023/09/30 12:58:47;;;;;;;4.53;3.27;;;;;;;;;;5009130;28;20581;-55
2023/09/30 13:01:14;;;;;;;6.33;3.30;;;;;;;;;;5008998;28;20190;-55
2023/09/30 13:03:40;;;;;;;5.17;3.13;;;;;;;;;;5009154;28;20554;-55
2023/09/30 13:06:06;;;;;;;7.03;3.90;;;;;;;;;;5010364;28;20179;-55
2023/09/30 13:08:33;;;;;;;5.77;3.57;;;;;;;;;;5008849;28;20190;-54
2023/09/30 13:11:03;;;;;;;5.90;3.33;;;;;;;;;;5006175;28;20195;-54
2023/09/30 13:13:30;;;;;;;10.10;4.40;;;;;;;;;;5011251;28;20537;-55
2023/09/30 13:15:57;;;;;;;11.87;3.80;;;;;;;;;;5007726;28;20237;-54
2023/09/30 13:18:23;;;;;;;7.73;4.47;;;;;;;;;;5010308;28;20184;-54
2023/09/30 13:20:49;;;;;;;8.50;3.33;;;;;;;;;;5007936;28;20182;-54
2023/09/30 13:23:15;;;;;;;8.37;3.70;;;;;;;;;;5009323;28;20186;-53
2023/09/30 13:25:42;;;;;;;13.65;4.35;;;;;;;;;;5008950;28;20427;-53
2023/09/30 13:28:08;;;;;;;6.40;4.93;;;;;;;;;;5007905;28;20766;-54
2023/09/30 13:30:34;;;;;;;6.00;2.97;;;;;;;;;;5006530;28;20712;-53
2023/09/30 13:33:00;;;;;;;4.40;3.40;;;;;;;;;;5005868;28;20185;-53
2023/09/30 13:35:26;;;;;;;5.50;3.53;;;;;;;;;;5004949;28;20174;-52
2023/09/30 13:37:52;;;;;;;5.80;3.07;;;;;;;;;;5009888;28;20700;-52
2023/09/30 13:40:19;;;;;;;4.67;3.93;;;;;;;;;;5009068;28;20194;-53
2023/09/30 13:42:45;;;;;;;4.33;2.90;;;;;;;;;;5003472;28;20272;-53
2023/09/30 13:45:11;;;;;;;5.13;3.27;;;;;;;;;;5009087;28;20581;-53
2023/09/30 13:47:37;;;;;;;3.90;3.17;;;;;;;;;;5009734;28;20405;-53
2023/09/30 13:50:04;;;;;;;5.00;3.37;;;;;;;;;;5008122;28;20668;-52
2023/09/30 13:52:30;;;;;;;6.10;3.27;;;;;;;;;;5008090;28;20170;-53
2023/09/30 13:54:56;;;;;;;5.37;3.33;;;;;;;;;;5007817;28;20176;-53
2023/09/30 13:57:22;;;;;;;6.90;3.83;;;;;;;;;;5008648;28;20264;-53
2023/09/30 13:59:48;;;;;;;6.73;4.37;;;;;;;;;;5008959;28;20190;-53
2023/09/30 14:02:14;;;;;;;6.00;3.87;;;;;;;;;;5008981;28;20187;-52
2023/09/30 14:04:40;;;;;;;6.00;3.57;;;;;;;;;;5008974;28;20182;-53
2023/09/30 14:07:07;;;;;;;4.83;3.90;;;;;;;;;;5006049;28;20182;-53
2023/09/30 14:09:34;;;;;;;9.83;3.57;;;;;;;;;;5007459;28;20266;-53
2023/09/30 14:12:00;;;;;;;5.13;3.13;;;;;;;;;;5009157;28;20320;-53
2023/09/30 14:14:26;;;;;;;6.83;3.70;;;;;;;;;;5008666;28;20722;-52
2023/09/30 14:16:52;;;;;;;4.50;2.90;;;;;;;;;;5007070;28;20170;-53
2023/09/30 14:19:19;;;;;;;6.27;3.40;;;;;;;;;;5007666;28;20186;-53
2023/09/30 14:21:45;;;;;;;5.03;3.30;;;;;;;;;;5006084;28;20581;-53
2023/09/30 14:24:11;;;;;;;5.07;3.07;;;;;;;;;;4992055;28;20185;-53
2023/09/30 14:26:39;;;;;;;4.87;2.87;;;;;;;;;;5006395;28;20645;-52
2023/09/30 14:29:05;;;;;;;5.03;3.40;;;;;;;;;;5009461;28;20634;-53
2023/09/30 14:31:31;;;;;;;4.43;2.80;;;;;;;;;;5007595;28;20551;-54
2023/09/30 14:33:57;;;;;;;5.80;3.20;;;;;;;;;;5009754;28;20518;-53
2023/09/30 14:36:23;;;;;;;4.60;3.23;;;;;;;;;;5005435;28;20634;-53
2023/09/30 14:38:49;;;;;;;6.13;3.70;;;;;;;;;;5006946;28;20170;-53
2023/09/30 14:41:16;;;;;;;7.43;3.80;;;;;;;;;;5006730;28;20660;-53
2023/09/30 14:43:42;;;;;;;4.13;3.50;;;;;;;;;;5009596;28;20206;-53